createdAt,value
2022-08-26T00:00:48.822Z,99.90
2022-08-26T00:03:17.201Z,99.90
2022-08-26T00:05:47.460Z,99.90
2022-08-26T00:08:15.337Z,99.90
2022-08-26T00:10:43.514Z,99.90
2022-08-26T00:13:11.794Z,99.90
2022-08-26T00:15:41.204Z,99.90
2022-08-26T00:18:21.949Z,99.90
2022-08-26T00:20:50.731Z,99.90
2022-08-26T00:23:19.402Z,99.90
2022-08-26T00:25:51.693Z,99.90
2022-08-26T00:28:19.149Z,99.90
2022-08-26T00:30:49.312Z,99.90
2022-08-26T00:33:20.666Z,99.90
2022-08-26T00:35:48.330Z,99.90
2022-08-26T00:38:17.832Z,99.90
2022-08-26T00:40:59.941Z,99.90
2022-08-26T00:43:32.718Z,99.90
2022-08-26T00:46:29.494Z,99.90
2022-08-26T00:49:11.720Z,99.90
2022-08-26T00:51:47.787Z,99.90
2022-08-26T00:54:16.066Z,99.90
2022-08-26T00:56:56.804Z,99.90
2022-08-26T00:59:28.525Z,99.90
2022-08-26T01:01:57.293Z,99.90
2022-08-26T01:04:26.341Z,99.90
2022-08-26T01:06:55.336Z,99.90
2022-08-26T01:09:23.334Z,99.90
2022-08-26T01:11:54.682Z,99.90
2022-08-26T01:14:23.544Z,99.90
2022-08-26T01:16:51.308Z,99.90
2022-08-26T01:19:23.761Z,99.90
2022-08-26T01:21:59.257Z,99.90
2022-08-26T01:24:28.963Z,99.90
2022-08-26T01:27:12.422Z,99.90
2022-08-26T01:29:43.223Z,99.90
2022-08-26T01:32:14.709Z,99.90
2022-08-26T01:34:42.233Z,99.90
2022-08-26T01:37:25.316Z,99.90
2022-08-26T01:39:55.423Z,99.90
2022-08-26T01:42:26.010Z,99.90
2022-08-26T01:45:01.557Z,99.90
2022-08-26T01:47:32.191Z,99.90
2022-08-26T01:50:03.829Z,99.90
2022-08-26T01:52:34.147Z,99.90
2022-08-26T01:55:05.513Z,99.90
2022-08-26T01:57:35.899Z,99.90
2022-08-26T02:00:07.485Z,99.90
2022-08-26T02:02:36.237Z,99.90
2022-08-26T02:05:08.206Z,99.90
2022-08-26T02:07:37.620Z,99.90
2022-08-26T02:10:05.789Z,99.90
2022-08-26T02:12:33.572Z,99.90
2022-08-26T02:15:05.839Z,99.90
2022-08-26T02:17:42.368Z,99.90
2022-08-26T02:20:13.306Z,99.90
2022-08-26T02:22:42.940Z,99.90
2022-08-26T02:25:17.057Z,99.90
2022-08-26T02:27:45.884Z,99.90
2022-08-26T02:30:23.750Z,99.90
2022-08-26T02:32:51.924Z,99.90
2022-08-26T02:35:21.149Z,99.90
2022-08-26T02:37:51.713Z,99.90
2022-08-26T02:40:23.547Z,99.90
2022-08-26T02:42:57.150Z,99.90
2022-08-26T02:45:26.287Z,99.90
2022-08-26T02:47:54.122Z,99.90
2022-08-26T02:50:24.174Z,99.90
2022-08-26T02:52:52.978Z,99.90
2022-08-26T02:55:24.688Z,99.90
2022-08-26T02:57:57.647Z,99.90
2022-08-26T03:00:26.920Z,99.90
2022-08-26T03:02:54.531Z,99.90
2022-08-26T03:05:24.037Z,99.90
2022-08-26T03:07:51.476Z,99.90
2022-08-26T03:10:19.477Z,99.90
2022-08-26T03:12:48.698Z,99.90
2022-08-26T03:15:18.444Z,99.90
2022-08-26T03:17:47.894Z,99.90
2022-08-26T03:20:17.389Z,99.90
2022-08-26T03:22:45.216Z,99.90
2022-08-26T03:25:17.171Z,99.90
2022-08-26T03:27:45.003Z,99.90
2022-08-26T03:30:31.818Z,99.90
2022-08-26T03:33:00.331Z,99.90
2022-08-26T03:35:29.004Z,99.90
2022-08-26T03:37:58.834Z,99.90
2022-08-26T03:40:25.988Z,99.90
2022-08-26T03:42:56.531Z,99.90
2022-08-26T03:45:23.689Z,99.90
2022-08-26T03:47:51.960Z,99.90
2022-08-26T03:50:24.343Z,99.90
2022-08-26T03:52:53.076Z,99.90
2022-08-26T03:55:24.764Z,99.90
2022-08-26T03:57:53.193Z,99.90
2022-08-26T04:00:20.804Z,99.90
2022-08-26T04:02:53.181Z,99.90
2022-08-26T04:05:23.032Z,99.90
2022-08-26T04:07:51.491Z,99.90
2022-08-26T04:10:28.568Z,99.90
2022-08-26T04:12:58.903Z,99.90
2022-08-26T04:15:34.980Z,99.90
2022-08-26T04:18:06.854Z,99.90
2022-08-26T04:20:34.208Z,99.90
2022-08-26T04:23:02.012Z,99.90
2022-08-26T04:25:31.418Z,99.90
2022-08-26T04:27:59.903Z,99.90
2022-08-26T04:30:28.890Z,99.90
2022-08-26T04:32:59.150Z,99.90
2022-08-26T04:35:27.174Z,99.90
2022-08-26T04:37:54.512Z,99.90
2022-08-26T04:40:21.624Z,99.90
2022-08-26T04:42:52.330Z,99.90
2022-08-26T04:45:19.465Z,99.90
2022-08-26T04:47:56.441Z,99.90
2022-08-26T04:50:25.575Z,99.90
2022-08-26T04:52:59.706Z,99.90
2022-08-26T04:55:38.547Z,99.90
2022-08-26T04:58:10.139Z,99.90
2022-08-26T05:00:37.877Z,99.90
2022-08-26T05:03:04.643Z,99.90
2022-08-26T05:05:35.497Z,99.90
2022-08-26T05:08:03.369Z,99.90
2022-08-26T05:10:30.625Z,99.90
2022-08-26T05:13:00.252Z,99.90
2022-08-26T05:15:27.115Z,99.90
2022-08-26T05:17:54.094Z,99.90
2022-08-26T05:20:26.221Z,99.90
2022-08-26T05:22:53.892Z,99.90
2022-08-26T05:25:21.576Z,99.90
2022-08-26T05:27:48.887Z,99.90
2022-08-26T05:30:21.199Z,99.90
2022-08-26T05:32:53.594Z,99.90
2022-08-26T05:35:23.017Z,99.90
2022-08-26T05:37:51.544Z,99.90
2022-08-26T05:40:19.639Z,99.90
2022-08-26T05:42:48.691Z,99.90
2022-08-26T05:45:19.883Z,99.90
2022-08-26T05:47:48.064Z,99.90
2022-08-26T05:50:16.264Z,99.90
2022-08-26T05:55:59.483Z,99.90
2022-08-26T05:58:42.880Z,99.90
2022-08-26T06:01:28.120Z,99.90
2022-08-26T06:04:04.538Z,99.90
2022-08-26T06:06:42.864Z,99.90
2022-08-26T06:09:13.042Z,99.90
2022-08-26T06:11:40.399Z,99.90
2022-08-26T06:14:11.678Z,99.90
2022-08-26T06:16:46.690Z,99.90
2022-08-26T06:19:15.859Z,99.90
2022-08-26T06:21:54.197Z,99.90
2022-08-26T06:24:42.863Z,99.90
2022-08-26T06:27:15.236Z,99.90
2022-08-26T06:29:42.722Z,99.90
2022-08-26T06:32:09.813Z,99.90
2022-08-26T06:34:37.195Z,99.90
2022-08-26T06:37:12.203Z,99.90
2022-08-26T06:39:42.586Z,99.90
2022-08-26T06:42:11.871Z,99.90
2022-08-26T06:44:44.771Z,99.90
2022-08-26T06:47:14.411Z,99.90
2022-08-26T06:49:44.329Z,99.90
2022-08-26T06:52:22.510Z,99.90
2022-08-26T06:54:52.524Z,99.90
2022-08-26T06:57:21.651Z,99.90
2022-08-26T06:59:51.240Z,99.90
2022-08-26T07:02:20.816Z,99.90
2022-08-26T07:04:51.058Z,99.90
2022-08-26T07:07:21.874Z,99.90
2022-08-26T07:09:59.059Z,99.90
2022-08-26T07:12:29.297Z,99.90
2022-08-26T07:14:56.611Z,99.90
2022-08-26T07:17:26.958Z,99.90
2022-08-26T07:19:54.211Z,99.90
2022-08-26T07:22:23.996Z,99.00
2022-08-26T07:38:22.112Z,93.40
2022-08-26T07:43:26.118Z,91.40
2022-08-26T07:45:56.894Z,88.20
2022-08-26T07:48:25.565Z,90.20
2022-08-26T07:50:54.357Z,94.30
2022-08-26T07:53:24.168Z,94.90
2022-08-26T07:55:51.526Z,91.30
2022-08-26T07:58:20.664Z,90.00
2022-08-26T08:00:47.725Z,93.60
2022-08-26T08:03:15.260Z,97.00
2022-08-26T08:05:42.472Z,96.60
2022-08-26T08:08:27.565Z,95.50
2022-08-26T08:10:56.708Z,95.40
2022-08-26T08:13:24.395Z,93.40
2022-08-26T08:15:51.327Z,93.30
2022-08-26T08:18:20.557Z,91.70
2022-08-26T08:20:54.513Z,93.30
2022-08-26T08:23:34.285Z,93.50
2022-08-26T08:26:10.239Z,93.80
2022-08-26T08:28:38.969Z,95.80
2022-08-26T08:31:06.361Z,95.40
2022-08-26T08:33:35.335Z,94.30
2022-08-26T08:36:02.672Z,94.50
2022-08-26T08:38:31.776Z,92.10
2022-08-26T08:40:59.389Z,91.90
2022-08-26T08:52:26.900Z,90.90
2022-08-26T09:00:30.210Z,80.90
2022-08-26T09:03:03.981Z,77.60
2022-08-26T09:05:48.056Z,85.30
2022-08-26T09:11:01.835Z,89.00
2022-08-26T09:16:20.444Z,78.50
2022-08-26T09:21:53.577Z,75.30
2022-08-26T09:24:20.582Z,71.70
2022-08-26T09:27:02.577Z,75.90
2022-08-26T09:35:10.705Z,92.70
2022-08-26T09:40:34.514Z,97.40
2022-08-26T09:48:37.328Z,99.90
2022-08-26T09:51:26.469Z,99.90
2022-08-26T09:54:00.826Z,99.90
2022-08-26T09:59:13.111Z,99.90
2022-08-26T10:01:47.761Z,99.90
2022-08-26T10:07:06.530Z,99.90
2022-08-26T10:18:00.412Z,99.90
2022-08-26T10:20:31.660Z,99.90
2022-08-26T10:26:24.115Z,99.90
2022-08-26T10:37:27.929Z,99.90
2022-08-26T10:43:30.527Z,99.90
2022-08-26T10:49:01.451Z,99.90
2022-08-26T10:51:36.181Z,99.90
2022-08-26T10:57:15.402Z,99.90
2022-08-26T11:00:01.083Z,99.90
2022-08-26T11:08:19.729Z,99.90
2022-08-26T11:11:01.760Z,99.90
2022-08-26T11:13:59.632Z,99.20
2022-08-26T11:27:35.672Z,97.50
2022-08-26T11:35:37.795Z,95.30
2022-08-26T11:38:17.101Z,93.70
2022-08-26T11:41:19.417Z,96.50
2022-08-26T11:43:52.584Z,94.50
2022-08-26T11:46:30.812Z,94.80
2022-08-26T11:52:22.638Z,92.80
2022-08-26T12:01:03.611Z,94.60
2022-08-26T12:14:41.251Z,91.60
2022-08-26T12:23:12.217Z,91.40
2022-08-26T12:33:40.614Z,88.50
2022-08-26T12:38:45.112Z,90.40
2022-08-26T12:41:13.601Z,90.30
2022-08-26T12:46:32.333Z,87.30
2022-08-26T12:51:42.618Z,89.20
2022-08-26T12:54:23.550Z,89.90
2022-08-26T12:56:50.709Z,91.60
2022-08-26T12:59:25.280Z,91.90
2022-08-26T13:01:59.680Z,90.40
2022-08-26T13:04:42.905Z,90.30
2022-08-26T13:07:21.642Z,89.30
2022-08-26T13:15:13.836Z,91.60
2022-08-26T13:17:41.857Z,91.80
2022-08-26T13:20:11.601Z,91.90
2022-08-26T13:25:22.231Z,93.40
2022-08-26T13:30:28.350Z,94.00
2022-08-26T13:33:02.221Z,92.50
2022-08-26T13:41:06.893Z,94.00
2022-08-26T13:48:50.312Z,95.80
2022-08-26T13:51:22.306Z,95.00
2022-08-26T13:53:50.942Z,93.40
2022-08-26T13:59:02.075Z,95.10
2022-08-26T14:01:31.510Z,95.70
2022-08-26T14:03:58.816Z,96.60
2022-08-26T14:09:04.195Z,96.20
2022-08-26T14:11:41.158Z,96.00
2022-08-26T14:14:21.865Z,94.70
2022-08-26T14:16:59.950Z,93.40
2022-08-26T14:22:09.495Z,95.20
2022-08-26T14:24:36.691Z,94.60
2022-08-26T14:35:01.738Z,94.20
2022-08-26T14:37:31.949Z,94.00
2022-08-26T14:53:51.665Z,94.20
2022-08-26T14:59:03.044Z,90.40
2022-08-26T15:04:05.595Z,91.20
2022-08-26T15:14:33.257Z,90.70
2022-08-26T15:19:40.524Z,91.00
2022-08-26T15:24:43.127Z,92.80
2022-08-26T15:27:10.014Z,90.00
2022-08-26T15:29:38.099Z,87.50
2022-08-26T15:37:19.920Z,86.30
2022-08-26T15:48:00.830Z,91.20
2022-08-26T15:50:32.175Z,93.40
2022-08-26T15:55:40.673Z,93.40
2022-08-26T15:58:07.755Z,94.80
2022-08-26T16:00:36.730Z,95.60
2022-08-26T16:03:04.203Z,96.40
2022-08-26T16:05:31.153Z,96.40
2022-08-26T16:08:01.055Z,97.30
2022-08-26T16:10:28.321Z,99.40
2022-08-26T16:12:56.827Z,98.70
2022-08-26T16:15:26.825Z,99.90
2022-08-26T16:18:00.451Z,99.50
2022-08-26T16:23:23.995Z,99.90
2022-08-26T16:26:04.749Z,99.90
2022-08-26T16:31:19.636Z,99.90
2022-08-26T16:33:46.854Z,99.90
2022-08-26T16:36:15.380Z,99.90
2022-08-26T16:38:49.964Z,99.90
2022-08-26T16:41:20.349Z,99.90
2022-08-26T16:43:50.285Z,99.90
2022-08-26T16:46:20.214Z,99.90
2022-08-26T16:48:49.885Z,99.90
2022-08-26T16:51:19.131Z,99.90
2022-08-26T16:59:10.031Z,99.90
2022-08-26T17:01:37.349Z,99.90
2022-08-26T17:04:05.074Z,99.90
2022-08-26T17:06:31.933Z,99.90
2022-08-26T17:08:58.702Z,99.90
2022-08-26T17:13:56.853Z,99.90
2022-08-26T17:16:26.855Z,99.90
2022-08-26T17:21:30.907Z,99.90
2022-08-26T17:23:59.828Z,99.90
2022-08-26T17:26:28.741Z,99.90
2022-08-26T17:31:39.699Z,99.90
2022-08-26T17:34:12.002Z,99.90
2022-08-26T17:36:39.135Z,99.90
2022-08-26T17:39:06.440Z,99.90
2022-08-26T17:46:59.581Z,99.90
2022-08-26T17:52:03.677Z,99.90
2022-08-26T17:54:31.367Z,99.90
2022-08-26T17:57:01.427Z,99.90
2022-08-26T18:02:04.462Z,99.90
2022-08-26T18:04:31.962Z,99.90
2022-08-26T18:07:05.523Z,99.90
2022-08-26T18:09:33.070Z,99.90
2022-08-26T18:12:01.119Z,99.90
2022-08-26T18:14:28.555Z,99.90
2022-08-26T18:17:00.704Z,99.90
2022-08-26T18:19:28.203Z,99.90
2022-08-26T18:27:13.211Z,99.90
2022-08-26T18:32:15.894Z,99.90
2022-08-26T18:34:48.803Z,99.90
2022-08-26T18:37:16.855Z,99.90
2022-08-26T18:45:04.812Z,99.90
2022-08-26T18:47:32.511Z,99.90
2022-08-26T19:08:49.835Z,99.90
2022-08-26T19:19:14.116Z,99.90
2022-08-26T19:21:41.372Z,99.90
2022-08-26T20:04:19.208Z,99.90
2022-08-26T20:28:51.008Z,99.90
2022-08-26T20:34:14.255Z,99.90
2022-08-26T20:48:20.536Z,99.90
2022-08-26T20:50:49.319Z,99.90
2022-08-26T20:53:56.721Z,99.90
2022-08-26T21:00:27.048Z,99.90
2022-08-26T21:03:01.515Z,99.90
2022-08-26T21:05:28.985Z,99.90
2022-08-26T21:08:12.190Z,99.90
2022-08-26T21:14:03.529Z,99.90
2022-08-26T21:17:14.666Z,99.90
2022-08-26T21:21:36.118Z,99.90
2022-08-26T21:23:13.034Z,99.90
2022-08-26T21:25:44.550Z,99.90
2022-08-26T21:28:14.307Z,99.90
2022-08-26T21:31:03.144Z,99.90
2022-08-26T21:33:33.262Z,99.90
2022-08-26T21:36:05.959Z,99.90
2022-08-26T21:38:36.924Z,99.90
2022-08-26T21:41:19.708Z,99.90
2022-08-26T21:45:01.140Z,99.90
2022-08-26T21:47:45.689Z,99.90
2022-08-26T21:50:27.518Z,99.90
2022-08-26T21:52:56.155Z,99.90
2022-08-26T21:55:26.845Z,99.90
2022-08-26T21:58:49.497Z,99.90
2022-08-26T22:01:11.218Z,99.90
2022-08-26T22:06:17.153Z,99.90
2022-08-26T23:00:31.886Z,99.90
2022-08-26T23:07:06.353Z,99.90
2022-08-26T23:23:15.717Z,99.90
2022-08-26T23:28:41.868Z,99.90
2022-08-26T23:31:09.554Z,99.90
2022-08-26T23:33:56.956Z,99.90
2022-08-26T23:36:30.772Z,99.90
2022-08-26T23:38:59.023Z,99.90
2022-08-26T23:41:26.325Z,99.90
2022-08-26T23:43:59.565Z,99.90
2022-08-26T23:46:35.750Z,99.90
2022-08-26T23:49:06.421Z,99.90
2022-08-26T23:51:56.396Z,99.90
2022-08-26T23:54:31.850Z,99.90
2022-08-26T23:57:25.755Z,99.90
